sensor_id;sensor_type;location;lat;lon;timestamp;pressure;altitude;pressure_sealevel;temperature;humidity
21401;BME280;18038;50.166;18.908;2023-06-26T00:01:10;98058.69;;;15.52;63.72
21401;BME280;18038;50.166;18.908;2023-06-26T00:04:17;98050.94;;;15.44;63.63
21401;BME280;18038;50.166;18.908;2023-06-26T00:07:26;98059.16;;;15.31;63.99
21401;BME280;18038;50.166;18.908;2023-06-26T00:10:33;98056.22;;;15.32;62.57
21401;BME280;18038;50.166;18.908;2023-06-26T00:13:40;98031.28;;;15.25;62.21
21401;BME280;18038;50.166;18.908;2023-06-26T00:16:47;98051.28;;;15.48;62.28
21401;BME280;18038;50.166;18.908;2023-06-26T00:19:54;98057.88;;;15.33;62.17
21401;BME280;18038;50.166;18.908;2023-06-26T00:23:03;98057.88;;;15.33;62.06
21401;BME280;18038;50.166;18.908;2023-06-26T00:26:10;98056.47;;;15.31;63.04
21401;BME280;18038;50.166;18.908;2023-06-26T00:29:17;98052.41;;;15.22;63.74
21401;BME280;18038;50.166;18.908;2023-06-26T00:32:24;98050.78;;;15.21;63.96
21401;BME280;18038;50.166;18.908;2023-06-26T00:35:31;98043.81;;;15.13;64.53
21401;BME280;18038;50.166;18.908;2023-06-26T00:38:41;98051.06;;;15.13;64.78
21401;BME280;18038;50.166;18.908;2023-06-26T00:41:48;98045.41;;;15.21;64.52
21401;BME280;18038;50.166;18.908;2023-06-26T00:44:56;98054.28;;;15.21;64.47
21401;BME280;18038;50.166;18.908;2023-06-26T00:48:04;98049.38;;;16.15;61.38
21401;BME280;18038;50.166;18.908;2023-06-26T00:51:15;98049.88;;;16.24;61.11
21401;BME280;18038;50.166;18.908;2023-06-26T00:54:26;98053.22;;;15.41;63.21
21401;BME280;18038;50.166;18.908;2023-06-26T00:57:32;98051.75;;;15.08;64.40
21401;BME280;18038;50.166;18.908;2023-06-26T01:00:42;98045.16;;;15.04;65.07
21401;BME280;18038;50.166;18.908;2023-06-26T01:03:50;98054.59;;;15.13;65.02
21401;BME280;18038;50.166;18.908;2023-06-26T01:07:02;98041.13;;;14.88;65.04
21401;BME280;18038;50.166;18.908;2023-06-26T01:10:12;98044.25;;;14.92;65.34
21401;BME280;18038;50.166;18.908;2023-06-26T01:13:23;98037.47;;;14.82;65.08
21401;BME280;18038;50.166;18.908;2023-06-26T01:16:31;98040.25;;;14.76;65.59
21401;BME280;18038;50.166;18.908;2023-06-26T01:19:39;98032.84;;;14.71;65.83
21401;BME280;18038;50.166;18.908;2023-06-26T01:23:03;98031.63;;;14.67;65.57
21401;BME280;18038;50.166;18.908;2023-06-26T01:26:21;98037.16;;;14.72;65.54
21401;BME280;18038;50.166;18.908;2023-06-26T01:29:31;98032.84;;;14.71;65.19
21401;BME280;18038;50.166;18.908;2023-06-26T01:32:39;98027.91;;;14.68;64.60
21401;BME280;18038;50.166;18.908;2023-06-26T01:35:48;98019.75;;;14.75;64.73
21401;BME280;18038;50.166;18.908;2023-06-26T18:26:40;97645.13;;;21.85;40.18
21401;BME280;18038;50.166;18.908;2023-06-26T18:29:48;97644.72;;;22.18;40.04
21401;BME280;18038;50.166;18.908;2023-06-26T18:32:54;97624.03;;;22.22;39.44
21401;BME280;18038;50.166;18.908;2023-06-26T18:36:04;97650.25;;;22.57;38.84
21401;BME280;18038;50.166;18.908;2023-06-26T18:39:12;97630.88;;;22.64;38.88
21401;BME280;18038;50.166;18.908;2023-06-26T18:42:23;97644.66;;;22.77;38.88
21401;BME280;18038;50.166;18.908;2023-06-26T18:45:34;97646.00;;;22.80;38.26
21401;BME280;18038;50.166;18.908;2023-06-26T18:48:47;97640.81;;;22.84;38.55
21401;BME280;18038;50.166;18.908;2023-06-26T18:51:56;97646.03;;;22.75;38.29
21401;BME280;18038;50.166;18.908;2023-06-26T18:55:04;97644.97;;;22.71;38.72
21401;BME280;18038;50.166;18.908;2023-06-26T18:58:14;97639.72;;;22.45;39.02
21401;BME280;18038;50.166;18.908;2023-06-26T19:01:26;97635.94;;;22.81;38.02
21401;BME280;18038;50.166;18.908;2023-06-26T19:04:33;97634.31;;;22.80;38.28
21401;BME280;18038;50.166;18.908;2023-06-26T19:07:40;97639.41;;;22.86;38.43
21401;BME280;18038;50.166;18.908;2023-06-26T19:10:47;97627.91;;;23.00;39.05
21401;BME280;18038;50.166;18.908;2023-06-26T19:13:56;97636.94;;;22.90;39.23
21401;BME280;18038;50.166;18.908;2023-06-26T19:17:03;97631.88;;;22.78;39.72
21401;BME280;18038;50.166;18.908;2023-06-26T19:20:12;97630.59;;;22.65;39.73
21401;BME280;18038;50.166;18.908;2023-06-26T19:23:19;97625.75;;;22.57;39.66
21401;BME280;18038;50.166;18.908;2023-06-26T19:26:26;97630.50;;;22.36;39.94
21401;BME280;18038;50.166;18.908;2023-06-26T19:29:35;97618.31;;;22.28;40.78
21401;BME280;18038;50.166;18.908;2023-06-26T19:32:42;97623.75;;;22.18;40.38
21401;BME280;18038;50.166;18.908;2023-06-26T19:35:49;97614.06;;;22.02;41.09
21401;BME280;18038;50.166;18.908;2023-06-26T19:38:56;97618.16;;;21.99;41.40
21401;BME280;18038;50.166;18.908;2023-06-26T19:42:07;97611.41;;;21.86;40.78
21401;BME280;18038;50.166;18.908;2023-06-26T19:45:18;97622.84;;;21.78;40.80
21401;BME280;18038;50.166;18.908;2023-06-26T19:48:24;97624.19;;;21.86;40.61
21401;BME280;18038;50.166;18.908;2023-06-26T19:51:31;97622.06;;;21.73;41.26
21401;BME280;18038;50.166;18.908;2023-06-26T19:54:37;97615.84;;;21.62;41.31
21401;BME280;18038;50.166;18.908;2023-06-26T19:57:46;97611.53;;;21.56;40.90
21401;BME280;18038;50.166;18.908;2023-06-26T20:00:56;97616.41;;;21.49;41.33
21401;BME280;18038;50.166;18.908;2023-06-26T20:04:04;97613.44;;;21.45;41.02
21401;BME280;18038;50.166;18.908;2023-06-26T20:07:11;97583.03;;;21.22;40.78
21401;BME280;18038;50.166;18.908;2023-06-26T20:10:18;97617.50;;;21.42;41.38
21401;BME280;18038;50.166;18.908;2023-06-26T20:13:24;97600.13;;;21.38;41.53
21401;BME280;18038;50.166;18.908;2023-06-26T20:16:38;97599.06;;;21.29;41.70
21401;BME280;18038;50.166;18.908;2023-06-26T20:19:46;97588.22;;;21.19;41.50
21401;BME280;18038;50.166;18.908;2023-06-26T20:23:02;97588.78;;;21.11;41.74
21401;BME280;18038;50.166;18.908;2023-06-26T20:26:25;97578.47;;;21.02;42.80
21401;BME280;18038;50.166;18.908;2023-06-26T20:29:32;97599.38;;;20.97;41.75
21401;BME280;18038;50.166;18.908;2023-06-26T20:32:41;97596.38;;;20.88;41.57
21401;BME280;18038;50.166;18.908;2023-06-26T20:35:49;97599.38;;;20.82;41.52
21401;BME280;18038;50.166;18.908;2023-06-26T20:38:56;97568.41;;;20.57;41.70
21401;BME280;18038;50.166;18.908;2023-06-26T20:42:05;97598.25;;;20.77;41.59
21401;BME280;18038;50.166;18.908;2023-06-26T20:45:14;97595.84;;;20.76;41.27
21401;BME280;18038;50.166;18.908;2023-06-26T20:48:26;97591.22;;;20.76;41.88
21401;BME280;18038;50.166;18.908;2023-06-26T20:51:33;97586.34;;;20.68;42.23
21401;BME280;18038;50.166;18.908;2023-06-26T20:54:41;97580.91;;;20.58;42.40
21401;BME280;18038;50.166;18.908;2023-06-26T20:57:48;97580.34;;;20.51;43.04
21401;BME280;18038;50.166;18.908;2023-06-26T21:00:55;97583.06;;;20.56;43.23
21401;BME280;18038;50.166;18.908;2023-06-26T21:04:04;97594.16;;;20.34;43.58
21401;BME280;18038;50.166;18.908;2023-06-26T21:07:11;97596.06;;;20.28;43.77
21401;BME280;18038;50.166;18.908;2023-06-26T21:10:17;97544.69;;;19.96;44.54
21401;BME280;18038;50.166;18.908;2023-06-26T21:13:24;97594.94;;;20.19;44.56
21401;BME280;18038;50.166;18.908;2023-06-26T21:16:30;97585.44;;;20.17;45.07
21401;BME280;18038;50.166;18.908;2023-06-26T21:19:43;97587.09;;;20.18;45.92
21401;BME280;18038;50.166;18.908;2023-06-26T21:22:49;97586.25;;;20.22;45.78
21401;BME280;18038;50.166;18.908;2023-06-26T21:25:59;97572.44;;;20.19;46.38
21401;BME280;18038;50.166;18.908;2023-06-26T21:29:05;97562.06;;;20.05;46.19
21401;BME280;18038;50.166;18.908;2023-06-26T21:32:12;97539.50;;;19.74;47.14
21401;BME280;18038;50.166;18.908;2023-06-26T21:35:22;97566.59;;;19.74;47.55
21401;BME280;18038;50.166;18.908;2023-06-26T21:38:45;97567.63;;;19.63;48.17
21401;BME280;18038;50.166;18.908;2023-06-26T21:41:51;97568.91;;;19.50;48.54
21401;BME280;18038;50.166;18.908;2023-06-26T21:44:59;97565.97;;;19.52;49.05
21401;BME280;18038;50.166;18.908;2023-06-26T21:48:06;97551.84;;;19.44;48.91
21401;BME280;18038;50.166;18.908;2023-06-26T21:51:15;97562.38;;;19.46;49.31
21401;BME280;18038;50.166;18.908;2023-06-26T21:54:24;97553.75;;;19.44;49.45
21401;BME280;18038;50.166;18.908;2023-06-26T21:57:30;97546.16;;;19.41;49.36
21401;BME280;18038;50.166;18.908;2023-06-26T22:00:37;97538.56;;;19.43;49.70
21401;BME280;18038;50.166;18.908;2023-06-26T22:03:44;97550.72;;;19.40;49.92
21401;BME280;18038;50.166;18.908;2023-06-26T22:06:52;97542.28;;;19.32;50.05
21401;BME280;18038;50.166;18.908;2023-06-26T22:09:59;97530.31;;;19.22;50.60
21401;BME280;18038;50.166;18.908;2023-06-26T22:13:07;97523.72;;;19.08;51.30
21401;BME280;18038;50.166;18.908;2023-06-26T22:16:14;97512.81;;;18.93;51.70
21401;BME280;18038;50.166;18.908;2023-06-26T22:19:20;97507.84;;;18.79;52.47
21401;BME280;18038;50.166;18.908;2023-06-26T22:22:30;97503.41;;;18.63;52.93
21401;BME280;18038;50.166;18.908;2023-06-26T22:25:39;97508.56;;;18.65;53.03
21401;BME280;18038;50.166;18.908;2023-06-26T22:28:46;97515.81;;;18.54;53.22
21401;BME280;18038;50.166;18.908;2023-06-26T22:31:52;97511.44;;;18.53;53.66
21401;BME280;18038;50.166;18.908;2023-06-26T22:34:59;97505.28;;;18.57;53.25
21401;BME280;18038;50.166;18.908;2023-06-26T22:38:08;97508.91;;;18.73;52.97
21401;BME280;18038;50.166;18.908;2023-06-26T22:41:19;97517.06;;;18.78;52.87
21401;BME280;18038;50.166;18.908;2023-06-26T22:44:25;97534.25;;;18.99;52.54
21401;BME280;18038;50.166;18.908;2023-06-26T22:47:33;97617.38;;;19.46;50.82
21401;BME280;18038;50.166;18.908;2023-06-26T22:50:41;97630.47;;;19.65;49.71
21401;BME280;18038;50.166;18.908;2023-06-26T22:53:52;97618.88;;;19.80;50.19
21401;BME280;18038;50.166;18.908;2023-06-26T22:56:59;97630.84;;;19.36;51.19
21401;BME280;18038;50.166;18.908;2023-06-26T23:00:07;97629.28;;;19.45;52.48
21401;BME280;18038;50.166;18.908;2023-06-26T23:03:15;97625.41;;;19.31;54.88
21401;BME280;18038;50.166;18.908;2023-06-26T23:06:22;97630.13;;;19.14;56.47
21401;BME280;18038;50.166;18.908;2023-06-26T23:09:31;97634.66;;;19.03;58.41
21401;BME280;18038;50.166;18.908;2023-06-26T23:12:38;97634.09;;;19.86;57.00
21401;BME280;18038;50.166;18.908;2023-06-26T23:15:44;97639.13;;;19.24;58.28
21401;BME280;18038;50.166;18.908;2023-06-26T23:18:51;97626.59;;;18.76;60.12
21401;BME280;18038;50.166;18.908;2023-06-26T23:21:58;97638.25;;;18.81;61.44
21401;BME280;18038;50.166;18.908;2023-06-26T23:25:10;97630.38;;;18.75;61.86
21401;BME280;18038;50.166;18.908;2023-06-26T23:28:16;97642.53;;;18.72;62.66
21401;BME280;18038;50.166;18.908;2023-06-26T23:31:23;97639.44;;;18.64;64.20
21401;BME280;18038;50.166;18.908;2023-06-26T23:34:31;97649.16;;;18.59;64.33
21401;BME280;18038;50.166;18.908;2023-06-26T23:37:38;97635.69;;;18.43;66.84
21401;BME280;18038;50.166;18.908;2023-06-26T23:40:48;97599.63;;;18.05;74.08
21401;BME280;18038;50.166;18.908;2023-06-26T23:43:54;97616.16;;;17.64;81.87
21401;BME280;18038;50.166;18.908;2023-06-26T23:47:08;97604.22;;;17.04;84.93
21401;BME280;18038;50.166;18.908;2023-06-26T23:50:16;97607.84;;;16.93;85.04
21401;BME280;18038;50.166;18.908;2023-06-26T23:53:23;97584.09;;;16.61;83.85
21401;BME280;18038;50.166;18.908;2023-06-26T23:56:33;97587.88;;;16.94;81.08
21401;BME280;18038;50.166;18.908;2023-06-26T23:59:39;97602.75;;;16.63;82.87
